createdAt,value
2022-10-11T00:00:54.238Z,986.81
2022-10-11T00:01:54.174Z,986.80
2022-10-11T00:02:54.157Z,986.78
2022-10-11T00:03:54.150Z,986.76
2022-10-11T00:04:54.134Z,986.76
2022-10-11T00:06:00.650Z,986.76
2022-10-11T00:06:54.135Z,986.78
2022-10-11T00:07:54.099Z,986.78
2022-10-11T00:08:54.091Z,986.78
2022-10-11T00:09:54.084Z,986.78
2022-10-11T00:10:54.072Z,986.80
2022-10-11T00:11:54.057Z,986.81
2022-10-11T00:12:54.061Z,986.82
2022-10-11T00:13:54.038Z,986.83
2022-10-11T00:14:54.031Z,986.86
2022-10-11T00:15:54.014Z,986.89
2022-10-11T00:16:54.008Z,986.90
2022-10-11T00:17:54.005Z,986.91
2022-10-11T00:18:53.987Z,986.90
2022-10-11T00:19:53.986Z,986.91
2022-10-11T00:20:53.964Z,986.91
2022-10-11T00:21:53.954Z,986.92
2022-10-11T00:22:53.968Z,986.93
2022-10-11T00:23:53.945Z,986.96
2022-10-11T00:24:53.927Z,986.97
2022-10-11T00:25:53.909Z,986.96
2022-10-11T00:26:53.899Z,986.95
2022-10-11T00:27:53.886Z,986.96
2022-10-11T00:28:53.952Z,986.97
2022-10-11T00:29:53.877Z,986.97
2022-10-11T00:30:53.858Z,986.97
2022-10-11T00:31:53.844Z,986.98
2022-10-11T00:32:53.837Z,986.98
2022-10-11T00:33:53.824Z,986.98
2022-10-11T00:34:53.825Z,986.97
2022-10-11T00:35:53.800Z,986.97
2022-10-11T00:36:53.791Z,986.97
2022-10-11T00:37:53.779Z,986.97
2022-10-11T00:38:53.772Z,986.98
2022-10-11T00:39:53.764Z,986.98
2022-10-11T00:40:53.755Z,986.98
2022-10-11T00:41:53.736Z,986.97
2022-10-11T00:42:53.730Z,986.95
2022-10-11T00:43:53.724Z,986.94
2022-10-11T00:44:53.722Z,986.93
2022-10-11T00:45:53.700Z,986.92
2022-10-11T00:46:55.906Z,986.91
2022-10-11T00:47:53.670Z,986.90
2022-10-11T00:48:53.676Z,986.89
2022-10-11T00:49:53.649Z,986.88
2022-10-11T00:50:53.648Z,986.87
2022-10-11T00:51:53.631Z,986.87
2022-10-11T00:52:53.623Z,986.86
2022-10-11T00:53:53.610Z,986.86
2022-10-11T00:54:53.613Z,986.88
2022-10-11T00:55:53.598Z,986.89
2022-10-11T00:56:53.579Z,986.93
2022-10-11T00:57:53.567Z,986.97
2022-10-11T00:58:53.567Z,987.00
2022-10-11T00:59:53.545Z,987.00
2022-10-11T01:00:53.557Z,987.00
2022-10-11T01:01:53.521Z,986.98
2022-10-11T01:02:53.521Z,986.98
2022-10-11T01:03:53.499Z,986.97
2022-10-11T01:05:11.372Z,986.96
2022-10-11T01:05:53.485Z,986.97
2022-10-11T01:06:53.473Z,986.98
2022-10-11T01:07:53.457Z,986.99
2022-10-11T01:08:53.459Z,987.02
2022-10-11T01:09:53.437Z,987.03
2022-10-11T01:10:53.429Z,987.04
2022-10-11T01:11:53.419Z,987.04
2022-10-11T01:12:53.407Z,987.04
2022-10-11T01:13:53.404Z,987.04
2022-10-11T01:14:53.389Z,987.04
2022-10-11T01:15:53.405Z,987.05
2022-10-11T01:16:53.362Z,987.05
2022-10-11T01:17:53.351Z,987.05
2022-10-11T01:18:53.342Z,987.04
2022-10-11T01:19:53.340Z,987.05
2022-10-11T01:20:53.333Z,987.05
2022-10-11T01:21:53.318Z,987.06
2022-10-11T01:22:53.300Z,987.07
2022-10-11T01:23:53.288Z,987.07
2022-10-11T01:24:58.490Z,987.07
2022-10-11T01:25:53.266Z,987.07
2022-10-11T01:26:53.268Z,987.08
2022-10-11T01:27:53.245Z,987.09
2022-10-11T01:28:53.286Z,987.09
2022-10-11T01:29:53.241Z,987.09
2022-10-11T01:30:53.228Z,987.09
2022-10-11T01:31:53.200Z,987.09
2022-10-11T01:32:53.193Z,987.08
2022-10-11T01:33:53.182Z,987.08
2022-10-11T01:34:53.174Z,987.08
2022-10-11T01:35:53.178Z,987.07
2022-10-11T01:36:53.149Z,987.08
2022-10-11T01:37:53.144Z,987.07
2022-10-11T01:38:53.135Z,987.07
2022-10-11T01:39:53.116Z,987.08
2022-10-11T01:40:53.111Z,987.11
2022-10-11T01:41:53.105Z,987.14
2022-10-11T01:42:53.094Z,987.16
2022-10-11T01:43:53.075Z,987.19
2022-10-11T01:44:53.065Z,987.20
2022-10-11T01:45:53.061Z,987.21
2022-10-11T01:46:53.072Z,987.21
2022-10-11T01:47:53.033Z,987.22
2022-10-11T01:48:53.022Z,987.21
2022-10-11T01:49:53.010Z,987.20
2022-10-11T01:50:53.018Z,987.18
2022-10-11T01:51:53.013Z,987.17
2022-10-11T01:52:52.983Z,987.15
2022-10-11T01:53:52.974Z,987.16
2022-10-11T01:55:10.009Z,987.17
2022-10-11T01:55:52.958Z,987.17
2022-10-11T01:56:52.940Z,987.19
2022-10-11T01:57:52.931Z,987.21
2022-10-11T01:58:52.919Z,987.23
2022-10-11T01:59:52.907Z,987.24
2022-10-11T02:00:52.897Z,987.25
2022-10-11T02:01:52.939Z,987.26
2022-10-11T02:02:52.882Z,987.26
2022-10-11T02:03:52.859Z,987.26
2022-10-11T02:04:52.853Z,987.25
2022-10-11T02:05:52.840Z,987.26
2022-10-11T02:06:52.829Z,987.26
2022-10-11T02:07:52.835Z,987.26
2022-10-11T02:08:52.809Z,987.28
2022-10-11T02:09:52.796Z,987.29
2022-10-11T02:10:52.788Z,987.30
2022-10-11T02:11:52.776Z,987.31
2022-10-11T02:12:52.787Z,987.33
2022-10-11T02:13:52.755Z,987.34
2022-10-11T02:14:52.745Z,987.34
2022-10-11T02:15:52.732Z,987.35
2022-10-11T02:16:52.723Z,987.37
2022-10-11T02:17:52.718Z,987.38
2022-10-11T02:18:52.715Z,987.39
2022-10-11T02:19:52.691Z,987.39
2022-10-11T02:20:52.683Z,987.39
2022-10-11T02:21:52.667Z,987.39
2022-10-11T02:22:52.662Z,987.39
2022-10-11T02:23:52.711Z,987.39
2022-10-11T02:24:52.640Z,987.38
2022-10-11T02:25:52.625Z,987.38
2022-10-11T02:26:52.615Z,987.38
2022-10-11T02:27:52.620Z,987.38
2022-10-11T02:28:52.659Z,987.39
2022-10-11T02:29:52.583Z,987.38
2022-10-11T02:30:52.584Z,987.39
2022-10-11T02:31:52.562Z,987.38
2022-10-11T02:32:52.553Z,987.38
2022-10-11T02:33:52.540Z,987.38
2022-10-11T02:34:52.547Z,987.38
2022-10-11T02:35:52.522Z,987.38
2022-10-11T02:36:52.511Z,987.38
2022-10-11T02:37:52.497Z,987.39
2022-10-11T02:38:52.498Z,987.40
2022-10-11T02:39:52.477Z,987.40
2022-10-11T02:40:52.468Z,987.39
2022-10-11T02:41:52.457Z,987.38
2022-10-11T02:42:52.449Z,987.37
2022-10-11T02:43:52.444Z,987.37
2022-10-11T02:44:52.426Z,987.35
2022-10-11T02:45:52.413Z,987.35
2022-10-11T02:46:52.407Z,987.34
2022-10-11T02:47:52.397Z,987.35
2022-10-11T02:48:52.399Z,987.34
2022-10-11T02:49:52.373Z,987.34
2022-10-11T02:50:52.384Z,987.34
2022-10-11T02:51:52.352Z,987.33
2022-10-11T02:52:52.342Z,987.33
2022-10-11T02:53:52.343Z,987.33
2022-10-11T02:54:52.344Z,987.34
2022-10-11T02:55:52.319Z,987.34
2022-10-11T02:56:52.302Z,987.34
2022-10-11T02:57:52.289Z,987.33
2022-10-11T02:58:52.287Z,987.33
2022-10-11T02:59:52.272Z,987.32
2022-10-11T03:00:52.273Z,987.32
2022-10-11T03:01:52.340Z,987.33
2022-10-11T03:02:52.239Z,987.34
2022-10-11T03:03:52.235Z,987.34
2022-10-11T03:04:52.226Z,987.36
2022-10-11T03:05:52.212Z,987.37
2022-10-11T03:06:52.199Z,987.37
2022-10-11T03:07:52.204Z,987.37
2022-10-11T03:08:52.174Z,987.36
2022-10-11T03:09:52.162Z,987.34
2022-10-11T03:10:52.157Z,987.34
2022-10-11T03:11:52.143Z,987.35
2022-10-11T03:12:52.133Z,987.36
2022-10-11T03:13:52.133Z,987.37
2022-10-11T03:14:52.114Z,987.38
2022-10-11T03:16:02.232Z,987.40
2022-10-11T03:16:52.115Z,987.42
2022-10-11T03:17:52.076Z,987.46
2022-10-11T03:18:51.063Z,987.50
2022-10-11T03:19:52.064Z,987.53
2022-10-11T03:20:52.051Z,987.56
2022-10-11T03:21:52.035Z,987.58
2022-10-11T03:22:52.036Z,987.61
2022-10-11T03:23:52.016Z,987.64
2022-10-11T03:24:52.008Z,987.68
2022-10-11T03:25:52.058Z,987.70
2022-10-11T03:26:51.987Z,987.73
2022-10-11T03:27:51.973Z,987.75
2022-10-11T03:28:52.042Z,987.76
2022-10-11T03:29:51.953Z,987.76
2022-10-11T03:30:51.950Z,987.77
2022-10-11T03:31:51.929Z,987.78
2022-10-11T03:32:51.924Z,987.80
2022-10-11T03:33:52.084Z,987.82
2022-10-11T03:34:51.898Z,987.84
2022-10-11T03:35:51.887Z,987.84
2022-10-11T03:36:51.887Z,987.84
2022-10-11T03:37:51.867Z,987.84
2022-10-11T03:38:51.858Z,987.84
2022-10-11T03:39:51.866Z,987.84
2022-10-11T03:40:51.838Z,987.86
2022-10-11T03:41:51.829Z,987.87
2022-10-11T03:42:51.817Z,987.87
2022-10-11T03:43:51.816Z,987.87
2022-10-11T03:44:51.797Z,987.89
2022-10-11T03:45:51.795Z,987.90
2022-10-11T03:46:51.775Z,987.91
2022-10-11T03:47:51.777Z,987.92
2022-10-11T03:48:51.773Z,987.92
2022-10-11T03:49:51.799Z,987.92
2022-10-11T03:50:51.733Z,987.91
2022-10-11T03:51:51.723Z,987.90
2022-10-11T03:52:51.713Z,987.88
2022-10-11T03:53:51.709Z,987.88
2022-10-11T03:54:51.697Z,987.87
2022-10-11T03:55:51.678Z,987.87
2022-10-11T03:56:51.671Z,987.88
2022-10-11T03:57:51.671Z,987.90
2022-10-11T03:58:51.657Z,987.92
2022-10-11T03:59:51.636Z,987.95
2022-10-11T04:00:51.650Z,987.96
2022-10-11T04:01:51.662Z,987.98
2022-10-11T04:02:51.604Z,987.98
2022-10-11T04:03:51.595Z,987.98
2022-10-11T04:04:51.586Z,987.99
2022-10-11T04:05:51.601Z,988.00
2022-10-11T04:06:51.583Z,988.01
2022-10-11T04:07:51.551Z,988.02
2022-10-11T04:08:51.548Z,988.03
2022-10-11T04:09:51.535Z,988.05
2022-10-11T04:10:51.568Z,988.06
2022-10-11T04:11:51.516Z,988.07
2022-10-11T04:12:51.507Z,988.08
2022-10-11T04:13:51.503Z,988.08
2022-10-11T04:14:51.484Z,988.07
2022-10-11T04:15:51.479Z,988.06
2022-10-11T04:16:51.457Z,988.05
2022-10-11T04:17:51.453Z,988.05
2022-10-11T04:18:51.436Z,988.04
2022-10-11T04:19:51.430Z,988.04
2022-10-11T04:20:51.416Z,988.04
2022-10-11T04:21:51.418Z,988.04
2022-10-11T04:22:51.394Z,988.05
2022-10-11T04:23:51.383Z,988.05
2022-10-11T04:24:51.371Z,988.05
2022-10-11T04:25:51.376Z,988.06
2022-10-11T04:26:51.392Z,988.06
2022-10-11T04:27:51.341Z,988.08
2022-10-11T04:28:51.395Z,988.08
2022-10-11T04:29:51.322Z,988.08
2022-10-11T04:30:51.314Z,988.07
2022-10-11T04:31:51.312Z,988.05
2022-10-11T04:32:51.290Z,988.04
2022-10-11T04:33:51.286Z,988.02
2022-10-11T04:34:51.276Z,988.01
2022-10-11T04:35:51.261Z,988.02
2022-10-11T04:36:51.248Z,988.02
2022-10-11T04:37:51.242Z,988.03
2022-10-11T04:38:51.225Z,988.04
2022-10-11T04:39:51.228Z,988.04
2022-10-11T04:40:51.202Z,988.04
2022-10-11T04:41:51.201Z,988.05
2022-10-11T04:42:51.198Z,988.06
2022-10-11T04:43:51.172Z,988.07
2022-10-11T04:44:51.166Z,988.07
2022-10-11T04:45:55.285Z,988.07
2022-10-11T04:46:51.153Z,988.07
2022-10-11T04:47:51.132Z,988.07
2022-10-11T04:48:51.128Z,988.07
2022-10-11T04:49:51.115Z,988.08
2022-10-11T04:50:51.101Z,988.10
2022-10-11T04:51:51.090Z,988.11
2022-10-11T04:52:51.088Z,988.12
2022-10-11T04:53:51.107Z,988.12
2022-10-11T04:54:51.057Z,988.12
2022-10-11T04:55:51.048Z,988.12
2022-10-11T04:56:51.050Z,988.12
2022-10-11T04:57:51.041Z,988.11
2022-10-11T04:58:51.012Z,988.12
2022-10-11T04:59:51.014Z,988.14
2022-10-11T05:00:51.064Z,988.18
2022-10-11T05:01:51.066Z,988.21
2022-10-11T05:02:50.984Z,988.23
2022-10-11T05:03:50.968Z,988.24
2022-10-11T05:04:50.962Z,988.24
2022-10-11T05:05:50.888Z,988.24
2022-10-11T05:06:50.933Z,988.23
2022-10-11T05:07:50.888Z,988.23
2022-10-11T05:08:50.854Z,988.24
2022-10-11T05:09:50.847Z,988.25
2022-10-11T05:10:50.889Z,988.25
2022-10-11T05:11:50.843Z,988.25
2022-10-11T05:12:50.820Z,988.27
2022-10-11T05:13:50.825Z,988.29
2022-10-11T05:14:50.844Z,988.30
2022-10-11T05:15:50.835Z,988.32
2022-10-11T05:16:50.823Z,988.33
2022-10-11T05:17:50.771Z,988.33
2022-10-11T05:18:50.755Z,988.32
2022-10-11T05:19:50.738Z,988.32
2022-10-11T05:20:50.725Z,988.33
2022-10-11T05:21:50.731Z,988.35
2022-10-11T05:22:50.703Z,988.38
2022-10-11T05:23:50.693Z,988.39
2022-10-11T05:24:50.683Z,988.41
2022-10-11T05:25:50.675Z,988.41
2022-10-11T05:26:50.668Z,988.42
2022-10-11T05:27:50.662Z,988.43
2022-10-11T05:28:50.782Z,988.43
2022-10-11T05:29:50.632Z,988.42
2022-10-11T05:30:50.630Z,988.41
2022-10-11T05:31:50.613Z,988.42
2022-10-11T05:32:50.597Z,988.41
2022-10-11T05:33:50.601Z,988.41
2022-10-11T05:34:50.578Z,988.41
2022-10-11T05:35:50.571Z,988.42
2022-10-11T05:36:50.554Z,988.43
2022-10-11T05:37:50.564Z,988.44
2022-10-11T05:38:50.546Z,988.47
2022-10-11T05:39:50.527Z,988.49
2022-10-11T05:40:50.527Z,988.51
2022-10-11T05:41:50.514Z,988.53
2022-10-11T05:42:50.492Z,988.56
2022-10-11T05:43:50.494Z,988.59
2022-10-11T05:44:50.467Z,988.62
2022-10-11T05:45:50.485Z,988.64
2022-10-11T05:46:50.452Z,988.67
2022-10-11T05:47:50.439Z,988.68
2022-10-11T05:48:50.425Z,988.70
2022-10-11T05:49:50.420Z,988.71
2022-10-11T05:50:50.407Z,988.73
2022-10-11T05:51:50.416Z,988.74
2022-10-11T05:52:50.386Z,988.74
2022-10-11T05:53:50.391Z,988.74
2022-10-11T05:54:50.366Z,988.74
2022-10-11T05:55:50.354Z,988.74
2022-10-11T05:56:50.345Z,988.74
2022-10-11T05:57:50.347Z,988.75
2022-10-11T05:58:50.319Z,988.76
2022-10-11T05:59:50.311Z,988.78
2022-10-11T06:00:50.342Z,988.81
2022-10-11T06:01:50.395Z,988.83
2022-10-11T06:02:50.275Z,988.85
2022-10-11T06:03:50.277Z,988.86
2022-10-11T06:04:50.267Z,988.87
2022-10-11T06:05:54.475Z,988.87
2022-10-11T06:06:50.256Z,988.88
2022-10-11T06:07:50.231Z,988.89
2022-10-11T06:08:50.213Z,988.90
2022-10-11T06:09:50.228Z,988.91
2022-10-11T06:10:50.192Z,988.92
2022-10-11T06:11:50.182Z,988.92
2022-10-11T06:12:50.184Z,988.93
2022-10-11T06:13:50.169Z,988.94
2022-10-11T06:14:50.159Z,988.94
2022-10-11T06:15:50.143Z,988.95
2022-10-11T06:16:50.131Z,988.96
2022-10-11T06:17:50.217Z,988.96
2022-10-11T06:18:50.111Z,988.97
2022-10-11T06:19:50.128Z,988.99
2022-10-11T06:20:50.085Z,989.01
2022-10-11T06:21:50.094Z,989.04
2022-10-11T06:22:50.062Z,989.07
2022-10-11T06:23:50.074Z,989.08
2022-10-11T06:24:50.042Z,989.09
2022-10-11T06:25:50.047Z,989.10
2022-10-11T06:26:50.019Z,989.12
2022-10-11T06:27:50.010Z,989.13
2022-10-11T06:28:50.043Z,989.15
2022-10-11T06:29:51.124Z,989.17
2022-10-11T06:30:49.988Z,989.18
2022-10-11T06:31:49.984Z,989.21
2022-10-11T06:32:49.956Z,989.22
2022-10-11T06:33:49.945Z,989.23
2022-10-11T06:34:49.950Z,989.25
2022-10-11T06:35:49.934Z,989.27
2022-10-11T06:36:49.912Z,989.28
2022-10-11T06:37:49.907Z,989.29
2022-10-11T06:38:49.902Z,989.30
2022-10-11T06:39:49.900Z,989.31
2022-10-11T06:40:49.877Z,989.32
2022-10-11T06:41:49.869Z,989.34
2022-10-11T06:42:49.854Z,989.35
2022-10-11T06:43:49.844Z,989.36
2022-10-11T06:44:49.829Z,989.38
2022-10-11T06:45:49.828Z,989.39
2022-10-11T06:46:49.806Z,989.39
2022-10-11T06:47:49.801Z,989.41
2022-10-11T06:48:49.788Z,989.43
2022-10-11T06:49:49.794Z,989.45
2022-10-11T06:50:59.591Z,989.47
2022-10-11T06:51:49.772Z,989.50
2022-10-11T06:52:49.745Z,989.51
2022-10-11T06:53:49.738Z,989.53
2022-10-11T06:54:49.724Z,989.55
2022-10-11T06:55:49.716Z,989.57
2022-10-11T06:56:49.715Z,989.58
2022-10-11T06:57:49.697Z,989.59
2022-10-11T06:58:49.685Z,989.60
2022-10-11T06:59:49.674Z,989.61
2022-10-11T07:00:49.701Z,989.62
2022-10-11T07:01:49.668Z,989.63
2022-10-11T07:02:49.644Z,989.64
2022-10-11T07:03:49.732Z,989.65
2022-10-11T07:04:49.624Z,989.66
2022-10-11T07:05:49.615Z,989.66
2022-10-11T07:06:49.616Z,989.66
2022-10-11T07:07:49.603Z,989.67
2022-10-11T07:08:49.578Z,989.67
2022-10-11T07:09:49.573Z,989.68
2022-10-11T07:10:49.564Z,989.70
2022-10-11T07:11:49.551Z,989.71
2022-10-11T07:12:49.536Z,989.73
2022-10-11T07:13:49.545Z,989.76
2022-10-11T07:14:49.516Z,989.78
2022-10-11T07:15:49.508Z,989.81
2022-10-11T07:16:49.497Z,989.84
2022-10-11T07:17:49.507Z,989.86
2022-10-11T07:18:49.485Z,989.87
2022-10-11T07:19:49.468Z,989.88
2022-10-11T07:20:49.457Z,989.90
2022-10-11T07:21:49.451Z,989.92
2022-10-11T07:22:49.433Z,989.93
2022-10-11T07:23:49.434Z,989.95
2022-10-11T07:24:49.418Z,989.95
2022-10-11T07:25:49.417Z,989.96
2022-10-11T07:26:49.391Z,989.96
2022-10-11T07:27:49.380Z,989.97
2022-10-11T07:28:49.414Z,989.97
2022-10-11T07:29:49.410Z,989.98
2022-10-11T07:30:49.347Z,989.99
2022-10-11T07:31:49.350Z,990.00
2022-10-11T07:32:49.330Z,990.01
2022-10-11T07:33:49.330Z,990.02
2022-10-11T07:34:49.319Z,990.02
2022-10-11T07:35:49.326Z,990.03
2022-10-11T07:36:49.309Z,990.03
2022-10-11T07:37:49.282Z,990.04
2022-10-11T07:38:49.266Z,990.05
2022-10-11T07:39:49.266Z,990.06
2022-10-11T07:40:49.242Z,990.07
2022-10-11T07:41:49.254Z,990.07
2022-10-11T07:42:49.233Z,990.08
2022-10-11T07:43:49.259Z,990.08
2022-10-11T07:44:49.283Z,990.07
2022-10-11T07:45:49.253Z,990.07
2022-10-11T07:46:49.238Z,990.08
2022-10-11T07:47:49.242Z,990.08
2022-10-11T07:48:49.244Z,990.08
2022-10-11T07:49:49.242Z,990.08
2022-10-11T07:50:49.251Z,990.08
2022-10-11T07:51:49.133Z,990.08
2022-10-11T07:52:49.117Z,990.06
2022-10-11T07:53:49.134Z,990.06
2022-10-11T07:54:49.103Z,990.06
2022-10-11T07:55:49.119Z,990.05
2022-10-11T07:56:49.103Z,990.05
2022-10-11T07:57:49.070Z,990.06
2022-10-11T07:58:49.054Z,990.06
2022-10-11T07:59:50.335Z,990.06
2022-10-11T08:00:49.049Z,990.06
2022-10-11T08:01:49.098Z,990.07
2022-10-11T08:02:49.022Z,990.08
2022-10-11T08:03:49.009Z,990.09
2022-10-11T08:04:48.994Z,990.11
2022-10-11T08:05:48.992Z,990.11
2022-10-11T08:06:52.651Z,990.11
2022-10-11T08:07:48.972Z,990.11
2022-10-11T08:08:49.371Z,990.11
2022-10-11T08:09:48.944Z,990.10
2022-10-11T08:10:48.930Z,990.09
2022-10-11T08:11:48.920Z,990.09
2022-10-11T08:12:49.838Z,990.09
2022-10-11T08:13:48.955Z,990.09
2022-10-11T08:14:48.888Z,990.10
2022-10-11T08:15:48.879Z,990.11
2022-10-11T08:16:48.872Z,990.12
2022-10-11T08:17:48.872Z,990.14
2022-10-11T08:18:48.855Z,990.16
2022-10-11T08:19:48.837Z,990.18
2022-10-11T08:20:48.828Z,990.20
2022-10-11T08:21:48.815Z,990.20
2022-10-11T08:22:48.798Z,990.20
2022-10-11T08:23:48.808Z,990.20
2022-10-11T08:24:48.777Z,990.21
2022-10-11T08:25:48.765Z,990.23
2022-10-11T08:26:48.757Z,990.23
2022-10-11T08:27:48.761Z,990.24
2022-10-11T08:28:48.837Z,990.25
2022-10-11T08:29:48.735Z,990.25
2022-10-11T08:30:48.717Z,990.26
2022-10-11T08:31:48.703Z,990.25
2022-10-11T08:32:48.699Z,990.25
2022-10-11T08:33:48.683Z,990.26
2022-10-11T08:34:48.670Z,990.25
2022-10-11T08:35:48.677Z,990.26
2022-10-11T08:36:48.650Z,990.26
2022-10-11T08:37:48.635Z,990.27
2022-10-11T08:38:48.626Z,990.27
2022-10-11T08:39:48.613Z,990.27
2022-10-11T08:40:48.605Z,990.27
2022-10-11T08:41:48.603Z,990.26
2022-10-11T08:42:48.592Z,990.25
2022-10-11T08:43:48.588Z,990.24
2022-10-11T08:45:47.551Z,990.23
2022-10-11T08:46:48.542Z,990.24
2022-10-11T08:47:48.526Z,990.25
2022-10-11T08:48:48.519Z,990.24
2022-10-11T08:49:48.515Z,990.24
2022-10-11T08:50:48.498Z,990.24
2022-10-11T08:51:48.492Z,990.24
2022-10-11T08:52:48.478Z,990.24
2022-10-11T08:53:48.466Z,990.25
2022-10-11T08:54:48.466Z,990.26
2022-10-11T08:55:48.443Z,990.26
2022-10-11T08:56:48.434Z,990.26
2022-10-11T08:57:48.420Z,990.25
2022-10-11T08:58:48.414Z,990.24
2022-10-11T08:59:48.413Z,990.24
2022-10-11T09:00:48.400Z,990.24
2022-10-11T09:01:48.478Z,990.24
2022-10-11T09:03:08.604Z,990.25
2022-10-11T09:03:48.363Z,990.26
2022-10-11T09:04:48.352Z,990.27
2022-10-11T09:05:48.356Z,990.28
2022-10-11T09:06:48.327Z,990.27
2022-10-11T09:07:48.319Z,990.27
2022-10-11T09:08:48.310Z,990.27
2022-10-11T09:09:48.292Z,990.27
2022-10-11T09:10:48.295Z,990.28
2022-10-11T09:11:48.287Z,990.28
2022-10-11T09:12:48.262Z,990.27
2022-10-11T09:13:48.253Z,990.28
2022-10-11T09:14:48.238Z,990.28
2022-10-11T09:15:48.230Z,990.28
2022-10-11T09:16:48.219Z,990.28
2022-10-11T09:17:48.227Z,990.27
2022-10-11T09:18:48.227Z,990.28
2022-10-11T09:19:48.243Z,990.28
2022-10-11T09:20:48.177Z,990.28
2022-10-11T09:21:48.163Z,990.28
2022-10-11T09:22:48.157Z,990.27
2022-10-11T09:23:48.144Z,990.28
2022-10-11T09:24:48.143Z,990.28
2022-10-11T09:25:48.122Z,990.27
2022-10-11T09:26:48.112Z,990.27
2022-10-11T09:28:02.289Z,990.26
2022-10-11T09:28:48.149Z,990.27
2022-10-11T09:29:48.074Z,990.28
2022-10-11T09:30:48.072Z,990.28
2022-10-11T09:31:48.056Z,990.28
2022-10-11T09:32:48.066Z,990.28
2022-10-11T09:33:48.033Z,990.27
2022-10-11T09:34:48.029Z,990.26
2022-10-11T09:35:48.012Z,990.26
2022-10-11T09:36:48.008Z,990.26
2022-10-11T09:37:48.000Z,990.26
2022-10-11T09:38:47.999Z,990.27
2022-10-11T09:39:47.968Z,990.27
2022-10-11T09:40:47.964Z,990.28
2022-10-11T09:41:47.949Z,990.29
2022-10-11T09:42:47.937Z,990.29
2022-10-11T09:43:47.941Z,990.30
2022-10-11T09:44:47.915Z,990.30
2022-10-11T09:45:49.671Z,990.31
2022-10-11T09:46:47.895Z,990.32
2022-10-11T09:47:47.883Z,990.32
2022-10-11T09:48:47.876Z,990.33
2022-10-11T09:49:47.863Z,990.33
2022-10-11T09:50:47.867Z,990.33
2022-10-11T09:51:47.839Z,990.33
2022-10-11T09:52:47.836Z,990.33
2022-10-11T09:53:47.819Z,990.32
2022-10-11T09:54:47.813Z,990.32
2022-10-11T09:55:47.857Z,990.32
2022-10-11T09:56:47.805Z,990.31
2022-10-11T09:57:47.779Z,990.30
2022-10-11T09:58:47.774Z,990.29
2022-10-11T09:59:47.756Z,990.28
2022-10-11T10:00:47.765Z,990.27
2022-10-11T10:01:47.794Z,990.26
2022-10-11T10:02:47.730Z,990.26
2022-10-11T10:03:47.719Z,990.26
2022-10-11T10:04:47.707Z,990.28
2022-10-11T10:05:46.685Z,990.28
2022-10-11T10:06:47.681Z,990.28
2022-10-11T10:07:47.687Z,990.28
2022-10-11T10:08:47.669Z,990.29
2022-10-11T10:09:47.663Z,990.30
2022-10-11T10:10:47.652Z,990.29
2022-10-11T10:11:47.647Z,990.31
2022-10-11T10:12:47.620Z,990.30
2022-10-11T10:13:47.611Z,990.30
2022-10-11T10:14:47.597Z,990.30
2022-10-11T10:15:47.597Z,990.30
2022-10-11T10:16:47.577Z,990.30
2022-10-11T10:17:47.587Z,990.29
2022-10-11T10:18:47.556Z,990.29
2022-10-11T10:19:47.545Z,990.28
2022-10-11T10:20:47.537Z,990.30
2022-10-11T10:21:47.522Z,990.31
2022-10-11T10:22:47.519Z,990.32
2022-10-11T10:23:47.588Z,990.33
2022-10-11T10:24:47.491Z,990.33
2022-10-11T10:25:47.489Z,990.33
2022-10-11T10:26:47.471Z,990.33
2022-10-11T10:27:47.473Z,990.33
2022-10-11T10:28:47.634Z,990.33
2022-10-11T10:29:47.437Z,990.33
2022-10-11T10:30:47.429Z,990.33
2022-10-11T10:32:12.408Z,990.34
2022-10-11T10:32:48.639Z,990.36
2022-10-11T10:33:47.407Z,990.37
2022-10-11T10:34:47.392Z,990.38
2022-10-11T10:35:47.373Z,990.39
2022-10-11T10:36:47.362Z,990.40
2022-10-11T10:37:47.351Z,990.40
2022-10-11T10:38:51.866Z,990.40
2022-10-11T10:39:47.347Z,990.40
2022-10-11T10:40:47.322Z,990.40
2022-10-11T10:41:47.308Z,990.39
2022-10-11T10:42:47.297Z,990.39
2022-10-11T10:43:47.286Z,990.38
2022-10-11T10:44:47.278Z,990.36
2022-10-11T10:45:47.287Z,990.35
2022-10-11T10:46:50.188Z,990.33
2022-10-11T10:47:47.244Z,990.32
2022-10-11T10:49:34.480Z,990.31
2022-10-11T10:49:55.238Z,990.31
2022-10-11T10:50:47.221Z,990.31
2022-10-11T10:51:47.207Z,990.33
2022-10-11T10:52:47.217Z,990.33
2022-10-11T10:53:47.178Z,990.34
2022-10-11T10:54:47.171Z,990.33
2022-10-11T10:55:47.159Z,990.33
2022-10-11T10:56:47.150Z,990.32
2022-10-11T10:57:47.136Z,990.32
2022-10-11T10:58:47.144Z,990.32
2022-10-11T10:59:47.120Z,990.31
2022-10-11T11:00:47.133Z,990.31
2022-10-11T11:01:47.126Z,990.31
2022-10-11T11:02:47.182Z,990.30
2022-10-11T11:03:47.106Z,990.31
2022-10-11T11:04:47.097Z,990.30
2022-10-11T11:05:47.060Z,990.30
2022-10-11T11:06:47.042Z,990.30
2022-10-11T11:07:47.028Z,990.30
2022-10-11T11:08:47.031Z,990.30
2022-10-11T11:09:47.011Z,990.30
2022-10-11T11:10:47.002Z,990.30
2022-10-11T11:11:46.991Z,990.30
2022-10-11T11:12:46.978Z,990.29
2022-10-11T11:13:46.973Z,990.29
2022-10-11T11:14:46.960Z,990.28
2022-10-11T11:15:46.943Z,990.28
2022-10-11T11:16:46.936Z,990.27
2022-10-11T11:17:46.923Z,990.28
2022-10-11T11:18:46.921Z,990.28
2022-10-11T11:19:46.913Z,990.27
2022-10-11T11:20:46.904Z,990.27
2022-10-11T11:21:46.893Z,990.27
2022-10-11T11:22:46.873Z,990.27
2022-10-11T11:23:46.859Z,990.26
2022-10-11T11:24:46.864Z,990.26
2022-10-11T11:25:46.842Z,990.25
2022-10-11T11:26:46.827Z,990.24
2022-10-11T11:27:46.814Z,990.23
2022-10-11T11:28:46.879Z,990.22
2022-10-11T11:29:46.792Z,990.21
2022-10-11T11:30:46.789Z,990.20
2022-10-11T11:31:46.773Z,990.19
2022-10-11T11:32:46.764Z,990.18
2022-10-11T11:33:48.902Z,990.17
2022-10-11T11:34:46.752Z,990.15
2022-10-11T11:35:46.737Z,990.15
2022-10-11T11:36:46.729Z,990.15
2022-10-11T11:37:46.720Z,990.14
2022-10-11T11:38:46.709Z,990.14
2022-10-11T11:39:46.696Z,990.13
2022-10-11T11:40:46.681Z,990.13
2022-10-11T11:41:46.663Z,990.13
2022-10-11T11:42:46.671Z,990.11
2022-10-11T11:43:46.645Z,990.10
2022-10-11T11:44:46.635Z,990.09
2022-10-11T11:45:46.622Z,990.06
2022-10-11T11:46:46.615Z,990.06
2022-10-11T11:47:46.599Z,990.06
2022-10-11T11:48:46.602Z,990.05
2022-10-11T11:49:46.596Z,990.05
2022-10-11T11:50:46.582Z,990.06
2022-10-11T11:51:46.567Z,990.06
2022-10-11T11:52:46.551Z,990.04
2022-10-11T11:53:46.544Z,990.03
2022-10-11T11:54:46.529Z,990.04
2022-10-11T11:55:46.526Z,990.03
2022-10-11T11:56:46.507Z,990.02
2022-10-11T11:57:46.506Z,990.03
2022-10-11T11:58:46.483Z,990.05
2022-10-11T11:59:46.474Z,990.03
2022-10-11T12:00:46.464Z,990.04
2022-10-11T12:01:46.480Z,990.04
2022-10-11T12:02:46.444Z,990.04
2022-10-11T12:03:46.437Z,990.04
2022-10-11T12:04:46.431Z,990.04
2022-10-11T12:05:46.411Z,990.03
2022-10-11T12:07:14.958Z,990.02
2022-10-11T12:07:46.389Z,989.99
2022-10-11T12:08:46.391Z,990.00
2022-10-11T12:09:46.372Z,990.00
2022-10-11T12:10:46.356Z,990.01
2022-10-11T12:11:46.342Z,990.02
2022-10-11T12:12:46.334Z,989.99
2022-10-11T12:13:46.322Z,990.01
2022-10-11T12:14:46.337Z,990.03
2022-10-11T12:15:46.297Z,990.03
2022-10-11T12:16:46.290Z,990.05
2022-10-11T12:17:46.276Z,990.04
2022-10-11T12:18:46.282Z,990.04
2022-10-11T12:19:46.259Z,990.03
2022-10-11T12:20:46.249Z,990.00
2022-10-11T12:21:46.234Z,989.99
2022-10-11T12:22:46.225Z,989.96
2022-10-11T12:23:46.211Z,989.97
2022-10-11T12:24:46.214Z,989.95
2022-10-11T12:25:46.209Z,989.96
2022-10-11T12:26:46.187Z,989.96
2022-10-11T12:27:46.178Z,989.95
2022-10-11T12:28:46.239Z,989.95
2022-10-11T12:29:46.149Z,989.94